Kingfisher — V7UL8 — position and weather

sailwx.info

Track history (hours):
 
Tides and Currents Weather Stations Pressure Air Temp Water Temp Dewpoint Dewpoint Depression Visibility Wind Speed Wind Dir Waves Ship Positions

Kingfisher

Last reported at 2018-Jun-23 13:33 UTC. Time now 2018-Jun-25 15:50 UTC.
Position N 25°33' W 079°37'.

Length 190 m; draft 6.7 m.

Type: Cargo ship. MMSI: 538003974.

Date/timePositionNaut miles runAvg speedWind from/ knotsBaromVisibWave heightAir tempDewpointWater temp
2018-Jun-23 13:33N 25°33' W 079°37'010.2
2018-Jun-23 13:30N 25°33' W 079°37'510.2
2018-Jun-23 13:00N 25°38' W 079°37'510.3
2018-Jun-23 12:30N 25°43' W 079°36'510.7
2018-Jun-23 12:00N 25°49' W 079°35'510.3
2018-Jun-23 11:30N 25°54' W 079°33'510.3
2018-Jun-23 11:00N 25°59' W 079°32'510.2
2018-Jun-23 10:30N 26°03' W 079°30'510.2
2018-Jun-23 09:59N 26°09' W 079°29'510.2
2018-Jun-23 09:30N 26°13' W 079°27'510.2
2018-Jun-23 09:00N 26°18' W 079°26'  
2018-Jun-18 21:56N 39°35' W 072°47'612.4
2018-Jun-18 21:29N 39°39' W 072°52'2712.7
2018-Jun-18 19:21N 39°58' W 073°18'812.5
2018-Jun-18 18:45N 40°03' W 073°24'412.2
2018-Jun-18 18:27N 40°06' W 073°27'712.3
2018-Jun-18 17:52N 40°12' W 073°33'2511.1
2018-Jun-18 15:35N 40°30' W 073°56'111.5
2018-Jun-18 15:30N 40°30' W 073°57'610.4
2018-Jun-18 14:55N 40°35' W 074°02'3 5.8
2018-Jun-18 14:22N 40°38' W 074°04'0 0.4
2018-Jun-18 13:58N 40°38' W 074°04'0 0.2
2018-Jun-18 13:28N 40°38' W 074°04'0 0.1
2018-Jun-18 12:58N 40°38' W 074°04'0 0.1
2018-Jun-18 12:25N 40°38' W 074°04'0 0.0
2018-Jun-18 11:58N 40°38' W 074°04'0 0.0
2018-Jun-18 11:25N 40°38' W 074°04'0 0.0
2018-Jun-18 10:58N 40°38' W 074°04'0 0.0
2018-Jun-18 10:28N 40°38' W 074°04'0 0.0
2018-Jun-18 09:58N 40°38' W 074°04'0 0.0
2018-Jun-18 09:28N 40°38' W 074°04'0 0.0
2018-Jun-18 08:58N 40°38' W 074°04'0 0.0
2018-Jun-18 08:28N 40°38' W 074°04'0 0.0
2018-Jun-18 07:58N 40°38' W 074°04'0 0.0
2018-Jun-18 07:28N 40°38' W 074°04'0 0.0
2018-Jun-18 06:58N 40°38' W 074°04'0 0.1
2018-Jun-18 06:28N 40°38' W 074°04'0 0.4
2018-Jun-18 05:58N 40°38' W 074°04'0 0.0
2018-Jun-18 05:28N 40°38' W 074°04'0 0.1
2018-Jun-18 05:00N 40°38' W 074°04'1 2.8
2018-Jun-18 04:30N 40°39' W 074°03'4 7.8
2018-Jun-18 04:00N 40°43' W 074°01'5 9.1
2018-Jun-18 03:30N 40°47' W 073°59'  
Track history (hours):
 
Tides and Currents Weather Stations Pressure Air Temp Water Temp Dewpoint Dewpoint Depression Visibility Wind Speed Wind Dir Waves Ship Positions

Kingfisher

Last reported at 2018-Jun-23 13:33 UTC. Time now 2018-Jun-25 15:50 UTC.
Position N 25°33' W 079°37'.

Length 190 m; draft 6.7 m.

Type: Cargo ship. MMSI: 538003974.

Date/timePositionNaut miles runAvg speedWind from/ knotsBaromVisibWave heightAir tempDewpointWater temp
2018-Jun-23 13:33N 25°33' W 079°37'010.2
2018-Jun-23 13:30N 25°33' W 079°37'510.2
2018-Jun-23 13:00N 25°38' W 079°37'510.3
2018-Jun-23 12:30N 25°43' W 079°36'510.7
2018-Jun-23 12:00N 25°49' W 079°35'510.3
2018-Jun-23 11:30N 25°54' W 079°33'510.3
2018-Jun-23 11:00N 25°59' W 079°32'510.2
2018-Jun-23 10:30N 26°03' W 079°30'510.2
2018-Jun-23 09:59N 26°09' W 079°29'510.2
2018-Jun-23 09:30N 26°13' W 079°27'510.2
2018-Jun-23 09:00N 26°18' W 079°26'  
2018-Jun-18 21:56N 39°35' W 072°47'612.4
2018-Jun-18 21:29N 39°39' W 072°52'2712.7
2018-Jun-18 19:21N 39°58' W 073°18'812.5
2018-Jun-18 18:45N 40°03' W 073°24'412.2
2018-Jun-18 18:27N 40°06' W 073°27'712.3
2018-Jun-18 17:52N 40°12' W 073°33'2511.1
2018-Jun-18 15:35N 40°30' W 073°56'111.5
2018-Jun-18 15:30N 40°30' W 073°57'610.4
2018-Jun-18 14:55N 40°35' W 074°02'3 5.8
2018-Jun-18 14:22N 40°38' W 074°04'0 0.4
2018-Jun-18 13:58N 40°38' W 074°04'0 0.2
2018-Jun-18 13:28N 40°38' W 074°04'0 0.1
2018-Jun-18 12:58N 40°38' W 074°04'0 0.1
2018-Jun-18 12:25N 40°38' W 074°04'0 0.0
2018-Jun-18 11:58N 40°38' W 074°04'0 0.0
2018-Jun-18 11:25N 40°38' W 074°04'0 0.0
2018-Jun-18 10:58N 40°38' W 074°04'0 0.0
2018-Jun-18 10:28N 40°38' W 074°04'0 0.0
2018-Jun-18 09:58N 40°38' W 074°04'0 0.0
2018-Jun-18 09:28N 40°38' W 074°04'0 0.0
2018-Jun-18 08:58N 40°38' W 074°04'0 0.0
2018-Jun-18 08:28N 40°38' W 074°04'0 0.0
2018-Jun-18 07:58N 40°38' W 074°04'0 0.0
2018-Jun-18 07:28N 40°38' W 074°04'0 0.0
2018-Jun-18 06:58N 40°38' W 074°04'0 0.1
2018-Jun-18 06:28N 40°38' W 074°04'0 0.4
2018-Jun-18 05:58N 40°38' W 074°04'0 0.0
2018-Jun-18 05:28N 40°38' W 074°04'0 0.1
2018-Jun-18 05:00N 40°38' W 074°04'1 2.8
2018-Jun-18 04:30N 40°39' W 074°03'4 7.8
2018-Jun-18 04:00N 40°43' W 074°01'5 9.1
2018-Jun-18 03:30N 40°47' W 073°59'  

Dump ship's entire track history